createdAt,value
2023-03-19T00:02:19.493Z,17.63
2023-03-19T00:04:47.519Z,16.03
2023-03-19T00:07:15.806Z,16.93
2023-03-19T00:09:43.529Z,16.20
2023-03-19T00:12:13.096Z,16.23
2023-03-19T00:14:40.873Z,14.93
2023-03-19T00:17:08.732Z,15.40
2023-03-19T00:19:36.402Z,13.77
2023-03-19T00:22:04.121Z,14.53
2023-03-19T00:24:32.139Z,14.03
2023-03-19T00:26:59.840Z,14.43
2023-03-19T00:29:29.096Z,13.67
2023-03-19T00:31:56.794Z,15.53
2023-03-19T00:34:24.445Z,16.10
2023-03-19T00:36:52.099Z,15.13
2023-03-19T00:39:21.662Z,15.30
2023-03-19T00:41:50.638Z,16.00
2023-03-19T00:44:19.281Z,15.30
2023-03-19T00:46:48.334Z,16.60
2023-03-19T00:49:16.193Z,15.63
2023-03-19T00:51:44.122Z,15.50
2023-03-19T00:54:12.996Z,14.03
2023-03-19T00:56:41.011Z,14.27
2023-03-19T00:59:08.757Z,13.73
2023-03-19T01:01:36.528Z,12.20
2023-03-19T01:04:06.231Z,12.53
2023-03-19T01:06:34.001Z,13.03
2023-03-19T01:09:01.653Z,11.50
2023-03-19T01:11:29.362Z,12.10
2023-03-19T01:13:57.149Z,11.50
2023-03-19T01:16:24.881Z,11.77
2023-03-19T01:18:52.811Z,10.87
2023-03-19T01:21:22.060Z,9.07
2023-03-19T01:23:51.690Z,8.77
2023-03-19T01:26:19.707Z,9.20
2023-03-19T01:28:47.454Z,8.50
2023-03-19T01:31:15.797Z,8.00
2023-03-19T01:33:43.731Z,8.03
2023-03-19T01:36:12.330Z,7.67
2023-03-19T01:38:41.543Z,7.20
2023-03-19T01:41:09.609Z,6.43
2023-03-19T01:43:37.523Z,5.70
2023-03-19T01:46:07.327Z,5.87
2023-03-19T01:48:39.440Z,5.10
2023-03-19T01:51:08.611Z,5.10
2023-03-19T01:53:37.544Z,4.90
2023-03-19T01:56:11.029Z,3.93
2023-03-19T01:58:38.948Z,4.70
2023-03-19T02:01:07.107Z,4.30
2023-03-19T02:03:35.362Z,4.70
2023-03-19T02:06:03.405Z,4.67
2023-03-19T02:08:32.052Z,4.20
2023-03-19T02:11:00.488Z,4.13
2023-03-19T02:13:29.703Z,4.17
2023-03-19T02:15:58.182Z,4.30
2023-03-19T02:18:26.410Z,4.33
2023-03-19T02:21:00.045Z,4.10
2023-03-19T02:23:34.664Z,4.20
2023-03-19T02:26:08.410Z,4.60
2023-03-19T02:28:38.788Z,4.30
2023-03-19T02:31:07.463Z,4.00
2023-03-19T02:33:35.826Z,4.43
2023-03-19T02:36:04.348Z,4.40
2023-03-19T02:38:34.302Z,4.40
2023-03-19T02:41:04.576Z,3.87
2023-03-19T02:43:34.306Z,4.37
2023-03-19T02:46:02.395Z,3.80
2023-03-19T02:48:30.115Z,3.90
2023-03-19T02:50:57.823Z,3.40
2023-03-19T02:53:25.639Z,3.53
2023-03-19T02:55:53.311Z,3.13
2023-03-19T02:58:21.274Z,3.67
2023-03-19T03:00:52.037Z,3.23
2023-03-19T03:03:19.840Z,3.30
2023-03-19T03:05:47.579Z,3.53
2023-03-19T03:08:15.769Z,3.70
2023-03-19T03:10:43.520Z,3.30
2023-03-19T03:13:11.214Z,3.30
2023-03-19T03:15:38.913Z,3.17
2023-03-19T03:18:08.047Z,3.50
2023-03-19T03:20:36.060Z,3.57
2023-03-19T03:23:03.883Z,3.50
2023-03-19T03:25:31.745Z,3.20
2023-03-19T03:27:59.906Z,3.23
2023-03-19T03:30:27.665Z,3.70
2023-03-19T03:32:55.740Z,3.43
2023-03-19T03:35:24.833Z,3.20
2023-03-19T03:37:52.904Z,3.10
2023-03-19T03:40:21.310Z,3.20
2023-03-19T03:42:49.033Z,3.03
2023-03-19T03:45:17.189Z,3.07
2023-03-19T03:47:44.883Z,3.30
2023-03-19T03:50:12.770Z,3.40
2023-03-19T03:52:42.654Z,3.40
2023-03-19T03:55:11.070Z,3.00
2023-03-19T03:57:38.815Z,3.40
2023-03-19T04:00:07.426Z,3.60
2023-03-19T04:02:35.196Z,3.43
2023-03-19T04:05:02.940Z,3.40
2023-03-19T04:07:30.622Z,3.20
2023-03-19T04:09:59.758Z,3.27
2023-03-19T04:12:27.453Z,3.50
2023-03-19T04:14:55.125Z,3.63
2023-03-19T04:17:23.672Z,3.63
2023-03-19T04:19:51.973Z,3.67
2023-03-19T04:22:19.689Z,4.00
2023-03-19T04:24:47.364Z,3.33
2023-03-19T04:27:16.432Z,3.53
2023-03-19T04:29:44.110Z,4.30
2023-03-19T04:32:11.897Z,4.00
2023-03-19T04:34:39.656Z,3.90
2023-03-19T04:37:07.361Z,4.07
2023-03-19T04:39:35.099Z,3.83
2023-03-19T04:42:03.226Z,4.60
2023-03-19T04:44:32.285Z,4.53
2023-03-19T04:46:59.945Z,5.07
2023-03-19T04:49:27.646Z,4.50
2023-03-19T04:51:56.364Z,5.13
2023-03-19T04:54:24.402Z,4.67
2023-03-19T04:56:53.071Z,4.47
2023-03-19T04:59:22.876Z,4.90
2023-03-19T05:01:52.116Z,4.73
2023-03-19T05:04:20.008Z,4.90
2023-03-19T05:06:47.718Z,5.10
2023-03-19T05:09:15.404Z,4.93
2023-03-19T05:11:43.121Z,5.20
2023-03-19T05:14:11.052Z,5.87
2023-03-19T05:16:38.816Z,5.97
2023-03-19T05:19:08.361Z,6.27
2023-03-19T05:21:36.047Z,5.90
2023-03-19T05:24:03.748Z,6.00
2023-03-19T05:26:31.468Z,5.83
2023-03-19T05:28:59.419Z,7.20
2023-03-19T05:31:27.117Z,7.97
2023-03-19T05:33:54.976Z,7.50
2023-03-19T05:36:24.137Z,7.37
2023-03-19T05:38:51.808Z,8.20
2023-03-19T05:41:19.516Z,9.63
2023-03-19T05:43:47.248Z,9.63
2023-03-19T05:46:15.029Z,9.37
2023-03-19T05:48:42.734Z,9.93
2023-03-19T05:51:11.607Z,9.87
2023-03-19T05:53:41.073Z,10.90
2023-03-19T05:56:09.071Z,11.40
2023-03-19T05:58:37.125Z,11.07
2023-03-19T06:01:05.016Z,10.80
2023-03-19T06:03:32.763Z,11.13
2023-03-19T06:06:01.240Z,11.60
2023-03-19T06:08:28.999Z,12.50
2023-03-19T06:10:58.053Z,11.47
2023-03-19T06:13:25.795Z,12.57
2023-03-19T06:15:53.590Z,13.70
2023-03-19T06:18:21.483Z,13.80
2023-03-19T06:20:49.406Z,13.90
2023-03-19T06:23:17.326Z,13.20
2023-03-19T06:25:45.015Z,14.10
2023-03-19T06:28:14.083Z,13.97
2023-03-19T06:30:41.913Z,13.93
2023-03-19T06:33:09.816Z,14.50
2023-03-19T06:35:37.678Z,14.83
2023-03-19T06:38:05.449Z,13.87
2023-03-19T06:40:33.378Z,14.87
2023-03-19T06:43:01.284Z,14.77
2023-03-19T06:45:30.983Z,14.17
2023-03-19T06:47:58.905Z,14.80
2023-03-19T06:50:27.203Z,15.13
2023-03-19T06:52:54.937Z,14.37
2023-03-19T06:55:22.675Z,15.07
2023-03-19T06:57:51.263Z,13.50
2023-03-19T07:00:20.742Z,13.17
2023-03-19T07:02:49.857Z,14.07
2023-03-19T07:05:17.694Z,13.23
2023-03-19T07:07:45.416Z,13.90
2023-03-19T07:10:13.695Z,14.47
2023-03-19T07:12:41.377Z,13.70
2023-03-19T07:15:10.027Z,13.93
2023-03-19T07:17:37.801Z,13.77
2023-03-19T07:20:08.217Z,14.00
2023-03-19T07:22:36.063Z,14.27
2023-03-19T07:25:03.762Z,14.10
2023-03-19T07:27:31.420Z,13.67
2023-03-19T07:29:59.053Z,13.80
2023-03-19T07:32:26.981Z,14.67
2023-03-19T07:34:54.722Z,15.27
2023-03-19T07:37:23.826Z,13.27
2023-03-19T07:39:52.192Z,15.30
2023-03-19T07:42:19.816Z,13.80
2023-03-19T07:44:47.494Z,13.00
2023-03-19T07:47:26.355Z,13.17
2023-03-19T07:49:56.105Z,12.70
2023-03-19T07:52:25.907Z,13.50
2023-03-19T07:54:53.785Z,13.17
2023-03-19T07:57:21.628Z,13.73
2023-03-19T07:59:49.270Z,14.10
2023-03-19T08:02:17.009Z,14.27
2023-03-19T08:04:44.997Z,14.17
2023-03-19T08:07:12.924Z,13.67
2023-03-19T08:09:42.024Z,13.27
2023-03-19T08:12:10.263Z,14.03
2023-03-19T08:14:38.008Z,13.57
2023-03-19T08:17:06.443Z,14.00
2023-03-19T08:19:34.123Z,13.83
2023-03-19T08:22:02.034Z,14.40
2023-03-19T08:24:29.693Z,14.13
2023-03-19T08:26:58.688Z,14.10
2023-03-19T08:29:27.421Z,15.03
2023-03-19T08:31:56.089Z,13.23
2023-03-19T08:34:24.087Z,14.33
2023-03-19T08:36:51.940Z,12.70
2023-03-19T08:39:19.674Z,12.70
2023-03-19T08:41:47.309Z,14.30
2023-03-19T08:44:16.390Z,13.83
2023-03-19T08:46:44.180Z,13.80
2023-03-19T08:49:11.851Z,13.67
2023-03-19T08:51:40.511Z,13.63
2023-03-19T08:54:09.093Z,13.30
2023-03-19T08:56:36.738Z,13.43
2023-03-19T08:59:04.386Z,14.67
2023-03-19T09:01:33.478Z,14.33
2023-03-19T09:04:01.177Z,15.00
2023-03-19T09:06:28.939Z,13.53
2023-03-19T09:08:56.608Z,14.00
2023-03-19T09:11:24.385Z,13.70
2023-03-19T09:13:52.213Z,12.90
2023-03-19T09:16:20.003Z,15.23
2023-03-19T09:18:49.201Z,13.20
2023-03-19T09:21:16.921Z,13.37
2023-03-19T09:23:44.615Z,14.13
2023-03-19T09:26:12.364Z,13.00
2023-03-19T09:28:40.107Z,12.87
2023-03-19T09:31:11.515Z,13.40
2023-03-19T09:33:39.248Z,14.07
2023-03-19T09:36:09.338Z,13.20
2023-03-19T09:38:37.080Z,13.20
2023-03-19T09:41:09.743Z,12.90
2023-03-19T09:43:46.463Z,12.80
2023-03-19T09:46:17.692Z,11.87
2023-03-19T09:48:50.504Z,11.63
2023-03-19T09:51:22.995Z,12.37
2023-03-19T09:53:54.147Z,11.70
2023-03-19T09:56:21.830Z,13.50
2023-03-19T09:58:49.514Z,12.10
2023-03-19T10:01:25.544Z,11.70
2023-03-19T10:04:17.715Z,12.83
2023-03-19T10:06:47.036Z,12.30
2023-03-19T10:09:31.723Z,11.63
2023-03-19T10:12:07.255Z,10.10
2023-03-19T10:14:52.919Z,10.67
2023-03-19T10:17:24.169Z,11.80
2023-03-19T10:19:54.828Z,10.53
2023-03-19T10:22:27.111Z,10.80
2023-03-19T10:24:55.348Z,9.63
2023-03-19T10:27:26.319Z,10.60
2023-03-19T10:29:54.037Z,9.43
2023-03-19T10:32:27.999Z,10.90
2023-03-19T10:34:55.941Z,10.37
2023-03-19T10:37:26.637Z,11.53
2023-03-19T10:39:57.631Z,11.40
2023-03-19T10:42:39.904Z,11.33
2023-03-19T10:45:17.235Z,10.17
2023-03-19T10:47:45.219Z,9.43
2023-03-19T10:50:18.394Z,9.37
2023-03-19T10:52:51.516Z,8.07
2023-03-19T10:55:23.709Z,8.80
2023-03-19T10:57:58.333Z,8.47
2023-03-19T11:00:27.202Z,9.00
2023-03-19T11:02:56.446Z,9.07
2023-03-19T11:05:26.257Z,8.80
2023-03-19T11:08:00.107Z,8.73
2023-03-19T11:10:30.053Z,8.77
2023-03-19T11:12:59.084Z,8.50
2023-03-19T11:15:30.061Z,8.80
2023-03-19T11:17:59.544Z,8.93
2023-03-19T11:20:31.996Z,8.10
2023-03-19T11:23:03.119Z,7.93
2023-03-19T11:25:33.165Z,8.83
2023-03-19T11:28:02.319Z,8.00
2023-03-19T11:30:35.237Z,7.90
2023-03-19T11:33:42.564Z,8.60
2023-03-19T11:36:14.152Z,8.70
2023-03-19T11:38:54.635Z,8.50
2023-03-19T11:41:30.413Z,9.30
2023-03-19T11:44:00.763Z,8.40
2023-03-19T11:46:36.510Z,8.73
2023-03-19T11:49:42.973Z,8.43
2023-03-19T11:52:17.888Z,8.47
2023-03-19T11:54:54.297Z,8.13
2023-03-19T11:57:31.025Z,7.83
2023-03-19T12:00:08.047Z,8.37
2023-03-19T12:03:07.723Z,8.70
2023-03-19T12:05:41.635Z,7.77
2023-03-19T12:08:19.404Z,7.67
2023-03-19T12:10:58.969Z,8.27
2023-03-19T12:13:37.759Z,7.93
2023-03-19T12:16:14.629Z,7.43
2023-03-19T12:18:53.032Z,6.33
2023-03-19T12:21:25.679Z,7.40
2023-03-19T12:24:04.735Z,6.90
2023-03-19T12:26:43.939Z,6.30
2023-03-19T12:29:18.761Z,5.90
2023-03-19T12:31:56.982Z,6.37
2023-03-19T12:34:29.745Z,6.90
2023-03-19T12:37:07.358Z,5.93
2023-03-19T12:39:38.128Z,6.83
2023-03-19T12:42:09.320Z,6.47
2023-03-19T12:44:40.286Z,7.17
2023-03-19T12:47:09.780Z,6.77
2023-03-19T12:49:39.359Z,6.43
2023-03-19T12:52:13.454Z,7.10
2023-03-19T12:54:43.257Z,6.43
2023-03-19T12:57:17.682Z,6.57
2023-03-19T12:59:49.699Z,5.77
2023-03-19T13:02:20.214Z,6.60
2023-03-19T13:04:53.516Z,6.07
2023-03-19T13:07:24.784Z,5.57
2023-03-19T13:09:57.550Z,5.20
2023-03-19T13:12:28.679Z,5.20
2023-03-19T13:14:59.867Z,5.07
2023-03-19T13:17:31.742Z,5.67
2023-03-19T13:20:00.799Z,4.97
2023-03-19T13:22:31.622Z,6.20
2023-03-19T13:25:00.111Z,6.07
2023-03-19T13:27:31.977Z,5.30
2023-03-19T13:30:13.337Z,4.93
2023-03-19T13:32:42.425Z,4.60
2023-03-19T13:35:26.371Z,4.47
2023-03-19T13:37:57.932Z,4.87
2023-03-19T13:40:56.573Z,5.00
2023-03-19T13:43:42.836Z,5.17
2023-03-19T13:47:02.501Z,4.60
2023-03-19T13:49:33.655Z,4.70
2023-03-19T13:52:04.938Z,3.90
2023-03-19T13:54:36.017Z,4.50
2023-03-19T13:57:19.431Z,4.77
2023-03-19T13:59:50.282Z,3.87
2023-03-19T14:02:49.712Z,4.70
2023-03-19T14:05:20.649Z,4.83
2023-03-19T14:07:53.145Z,5.13
2023-03-19T14:10:27.231Z,5.30
2023-03-19T14:13:03.755Z,4.73
2023-03-19T14:15:31.980Z,4.10
2023-03-19T14:18:02.885Z,4.57
2023-03-19T14:20:40.605Z,4.57
2023-03-19T14:23:23.308Z,4.00
2023-03-19T14:26:06.858Z,4.13
2023-03-19T14:28:38.730Z,4.37
2023-03-19T14:31:07.143Z,4.37
2023-03-19T14:33:44.698Z,4.80
2023-03-19T14:36:16.380Z,4.17
2023-03-19T14:38:51.169Z,4.20
2023-03-19T14:41:22.207Z,4.10
2023-03-19T14:44:15.601Z,4.30
2023-03-19T14:46:52.619Z,4.13
2023-03-19T14:49:44.943Z,4.40
2023-03-19T14:52:13.484Z,5.27
2023-03-19T14:54:45.113Z,5.03
2023-03-19T14:57:18.023Z,5.50
2023-03-19T14:59:45.735Z,6.83
2023-03-19T15:02:23.080Z,9.40
2023-03-19T15:04:52.490Z,8.63
2023-03-19T15:07:21.784Z,9.03
2023-03-19T15:09:53.786Z,13.37
2023-03-19T15:12:34.263Z,14.83
2023-03-19T15:15:26.062Z,14.33
2023-03-19T15:18:03.796Z,14.37
2023-03-19T15:20:37.183Z,14.57
2023-03-19T15:23:13.528Z,15.53
2023-03-19T15:25:52.718Z,14.53
2023-03-19T15:28:20.873Z,16.50
2023-03-19T15:31:05.719Z,14.60
2023-03-19T15:33:44.053Z,15.80
2023-03-19T15:36:17.382Z,15.57
2023-03-19T15:38:48.769Z,16.90
2023-03-19T15:41:17.187Z,16.77
2023-03-19T15:43:45.320Z,15.60
2023-03-19T15:46:15.498Z,16.47
2023-03-19T15:48:45.576Z,15.13
2023-03-19T15:51:15.923Z,15.80
2023-03-19T15:53:44.805Z,16.07
2023-03-19T15:56:14.262Z,17.50
2023-03-19T15:58:43.962Z,16.87
2023-03-19T16:01:13.094Z,16.97
2023-03-19T16:03:42.877Z,17.33
2023-03-19T16:06:18.693Z,17.17
2023-03-19T16:08:53.142Z,18.60
2023-03-19T16:11:29.660Z,17.00
2023-03-19T16:13:58.955Z,17.43
2023-03-19T16:16:29.812Z,19.63
2023-03-19T16:18:58.816Z,20.37
2023-03-19T16:21:36.191Z,18.37
2023-03-19T16:24:05.319Z,19.77
2023-03-19T16:26:38.853Z,20.67
2023-03-19T16:29:11.203Z,21.03
2023-03-19T16:31:44.280Z,19.33
2023-03-19T16:34:25.355Z,20.87
2023-03-19T16:36:54.418Z,19.00
2023-03-19T16:39:28.072Z,17.50
2023-03-19T16:42:16.448Z,18.67
2023-03-19T16:44:45.247Z,18.70
2023-03-19T16:47:14.444Z,19.43
2023-03-19T16:49:42.260Z,19.07
2023-03-19T16:52:15.832Z,18.27
2023-03-19T16:54:43.702Z,19.40
2023-03-19T16:57:11.880Z,17.63
2023-03-19T16:59:39.641Z,17.70
2023-03-19T17:02:12.102Z,16.83
2023-03-19T17:04:39.885Z,19.67
2023-03-19T17:07:08.099Z,18.97
2023-03-19T17:09:37.564Z,19.13
2023-03-19T17:12:06.630Z,18.60
2023-03-19T17:14:34.339Z,19.80
2023-03-19T17:17:02.643Z,17.87
2023-03-19T17:19:34.465Z,17.93
2023-03-19T17:22:02.653Z,18.40
2023-03-19T17:24:31.901Z,17.70
2023-03-19T17:27:02.952Z,20.00
2023-03-19T17:29:31.329Z,18.40
2023-03-19T17:32:01.724Z,18.10
2023-03-19T17:34:31.838Z,18.87
2023-03-19T17:37:01.303Z,17.40
2023-03-19T17:39:31.411Z,17.90
2023-03-19T17:42:00.956Z,17.57
2023-03-19T17:44:29.388Z,18.40
2023-03-19T17:46:57.270Z,17.23
2023-03-19T17:49:28.772Z,17.73
2023-03-19T17:51:56.885Z,18.63
2023-03-19T17:54:26.738Z,18.77
2023-03-19T17:56:54.536Z,22.17
2023-03-19T17:59:23.728Z,18.63
2023-03-19T18:01:52.137Z,20.00
2023-03-19T18:04:21.288Z,19.53
2023-03-19T18:06:51.946Z,21.80
2023-03-19T18:09:21.387Z,21.17
2023-03-19T18:11:49.041Z,21.17
2023-03-19T18:14:16.757Z,21.27
2023-03-19T18:16:46.465Z,23.10
2023-03-19T18:19:21.155Z,22.17
2023-03-19T18:21:48.849Z,21.23
2023-03-19T18:24:16.543Z,21.97
2023-03-19T18:26:44.266Z,21.83
2023-03-19T18:29:11.924Z,22.57
2023-03-19T18:31:41.332Z,24.80
2023-03-19T18:34:13.710Z,22.90
2023-03-19T18:36:41.444Z,24.27
2023-03-19T18:39:12.256Z,24.13
2023-03-19T18:41:39.976Z,23.33
2023-03-19T18:44:08.415Z,22.20
2023-03-19T18:46:37.821Z,24.20
2023-03-19T18:49:07.845Z,22.93
2023-03-19T18:51:36.871Z,24.60
2023-03-19T18:54:04.921Z,23.33
2023-03-19T18:56:33.488Z,22.33
2023-03-19T18:59:02.164Z,24.70
2023-03-19T19:01:29.851Z,25.90
2023-03-19T19:03:57.704Z,22.87
2023-03-19T19:06:45.909Z,24.30
2023-03-19T19:09:15.792Z,24.03
2023-03-19T19:11:44.809Z,26.27
2023-03-19T19:14:17.024Z,24.53
2023-03-19T19:16:44.736Z,23.13
2023-03-19T19:19:16.612Z,22.37
2023-03-19T19:21:44.255Z,22.53
2023-03-19T19:24:14.796Z,23.40
2023-03-19T19:26:45.234Z,23.50
2023-03-19T19:29:16.992Z,22.83
2023-03-19T19:31:44.699Z,24.30
2023-03-19T19:34:14.139Z,22.13
2023-03-19T19:36:41.893Z,24.37
2023-03-19T19:39:09.943Z,22.67
2023-03-19T19:41:38.055Z,22.57
2023-03-19T19:44:07.511Z,22.90
2023-03-19T19:46:35.381Z,28.33
2023-03-19T19:49:03.148Z,24.73
2023-03-19T19:51:31.070Z,24.63
2023-03-19T19:53:58.700Z,23.93
2023-03-19T19:56:26.954Z,25.30
2023-03-19T19:58:55.445Z,24.07
2023-03-19T20:01:26.210Z,25.60
2023-03-19T20:03:54.331Z,26.87
2023-03-19T20:06:22.061Z,27.50
2023-03-19T20:08:50.290Z,26.77
2023-03-19T20:11:20.223Z,26.67
2023-03-19T20:13:51.497Z,24.43
2023-03-19T20:16:20.059Z,27.63
2023-03-19T20:18:51.069Z,24.63
2023-03-19T20:21:18.731Z,25.73
2023-03-19T20:23:46.727Z,26.90
2023-03-19T20:26:15.383Z,26.50
2023-03-19T20:28:43.535Z,26.27
2023-03-19T20:31:17.849Z,26.73
2023-03-19T20:33:45.535Z,23.90
2023-03-19T20:36:17.065Z,25.83
2023-03-19T20:38:44.759Z,25.23
2023-03-19T20:41:19.256Z,25.33
2023-03-19T20:43:47.570Z,25.03
2023-03-19T20:46:15.298Z,26.13
2023-03-19T20:48:42.988Z,26.57
2023-03-19T20:51:12.017Z,24.87
2023-03-19T20:53:41.036Z,24.97
2023-03-19T20:56:14.429Z,25.43
2023-03-19T20:58:42.148Z,26.20
2023-03-19T21:01:10.610Z,26.20
2023-03-19T21:03:39.112Z,26.23
2023-03-19T21:06:11.209Z,25.80
2023-03-19T21:08:42.940Z,26.30
2023-03-19T21:11:14.357Z,25.83
2023-03-19T21:13:42.427Z,25.90
2023-03-19T21:16:14.315Z,25.57
2023-03-19T21:18:42.019Z,25.63
2023-03-19T21:21:12.053Z,23.50
2023-03-19T21:23:40.056Z,24.57
2023-03-19T21:26:12.978Z,25.13
2023-03-19T21:28:41.420Z,23.95
2023-03-19T21:31:13.758Z,23.33
2023-03-19T21:33:43.323Z,22.10
2023-03-19T21:36:11.312Z,20.33
2023-03-19T21:38:39.072Z,21.80
2023-03-19T21:41:10.560Z,21.00
2023-03-19T21:43:41.860Z,19.30
2023-03-19T21:46:23.220Z,18.83
2023-03-19T21:48:52.225Z,19.03
2023-03-19T21:51:20.412Z,19.20
2023-03-19T21:53:48.308Z,18.80
2023-03-19T21:56:21.229Z,20.33
2023-03-19T21:58:49.301Z,20.23
2023-03-19T22:01:19.039Z,22.00
2023-03-19T22:03:46.789Z,23.57
2023-03-19T22:06:14.623Z,19.70
2023-03-19T22:08:44.481Z,22.77
2023-03-19T22:11:16.439Z,20.63
2023-03-19T22:13:45.797Z,19.63
2023-03-19T22:16:18.857Z,20.17
2023-03-19T22:18:46.785Z,20.60
2023-03-19T22:21:16.302Z,22.87
2023-03-19T22:23:44.020Z,23.07
2023-03-19T22:26:28.498Z,24.40
2023-03-19T22:28:58.955Z,23.10
2023-03-19T22:31:26.877Z,23.47
2023-03-19T22:33:54.800Z,23.73
2023-03-19T22:36:22.523Z,24.77
2023-03-19T22:38:50.293Z,26.60
2023-03-19T22:41:27.587Z,25.77
2023-03-19T22:43:56.869Z,26.40
2023-03-19T22:46:25.223Z,26.47
2023-03-19T22:48:52.988Z,27.70
2023-03-19T22:51:22.587Z,26.37
2023-03-19T22:53:51.303Z,27.50
2023-03-19T22:56:22.613Z,26.20
2023-03-19T22:58:50.680Z,26.87
2023-03-19T23:01:30.973Z,26.80
2023-03-19T23:03:58.867Z,28.10
2023-03-19T23:06:30.702Z,25.83
2023-03-19T23:08:58.782Z,26.13
2023-03-19T23:11:27.050Z,25.23
2023-03-19T23:13:56.575Z,26.23
2023-03-19T23:16:28.134Z,26.10
2023-03-19T23:18:58.483Z,24.13
2023-03-19T23:21:26.163Z,25.20
2023-03-19T23:23:54.574Z,26.00
2023-03-19T23:26:27.412Z,24.93
2023-03-19T23:28:56.468Z,26.57
2023-03-19T23:31:24.292Z,23.10
2023-03-19T23:33:53.346Z,24.73
2023-03-19T23:36:21.800Z,24.00
2023-03-19T23:38:49.433Z,23.67
2023-03-19T23:41:22.089Z,22.77
2023-03-19T23:43:49.819Z,24.23
2023-03-19T23:46:17.507Z,22.57
2023-03-19T23:48:45.464Z,24.70
2023-03-19T23:51:15.838Z,24.30
2023-03-19T23:53:44.021Z,22.50
2023-03-19T23:56:18.580Z,22.10
2023-03-19T23:58:48.067Z,23.07
